sensor_id;sensor_type;location;lat;lon;timestamp;P1;durP1;ratioP1;P2;durP2;ratioP2
66129;SDS011;52930;51.464;11.764;2023-05-29T00:01:49;9.55;;;3.60;;
66129;SDS011;52930;51.464;11.764;2023-05-29T00:04:14;9.23;;;3.42;;
66129;SDS011;52930;51.464;11.764;2023-05-29T00:06:39;9.13;;;3.50;;
66129;SDS011;52930;51.464;11.764;2023-05-29T00:09:06;9.18;;;3.50;;
66129;SDS011;52930;51.464;11.764;2023-05-29T00:11:31;10.27;;;3.17;;
66129;SDS011;52930;51.464;11.764;2023-05-29T00:13:56;9.43;;;3.30;;
66129;SDS011;52930;51.464;11.764;2023-05-29T00:16:22;7.67;;;3.23;;
66129;SDS011;52930;51.464;11.764;2023-05-29T00:18:48;11.52;;;3.72;;
66129;SDS011;52930;51.464;11.764;2023-05-29T00:21:14;11.35;;;3.20;;
66129;SDS011;52930;51.464;11.764;2023-05-29T00:23:40;10.63;;;3.53;;
66129;SDS011;52930;51.464;11.764;2023-05-29T00:26:06;8.27;;;3.00;;
66129;SDS011;52930;51.464;11.764;2023-05-29T00:28:31;11.13;;;3.43;;
66129;SDS011;52930;51.464;11.764;2023-05-29T00:30:57;8.90;;;3.38;;
66129;SDS011;52930;51.464;11.764;2023-05-29T00:33:22;9.97;;;3.53;;
66129;SDS011;52930;51.464;11.764;2023-05-29T00:35:47;9.93;;;3.20;;
66129;SDS011;52930;51.464;11.764;2023-05-29T00:38:13;10.87;;;3.10;;
66129;SDS011;52930;51.464;11.764;2023-05-29T00:40:39;11.30;;;3.20;;
66129;SDS011;52930;51.464;11.764;2023-05-29T00:43:05;9.98;;;3.10;;
66129;SDS011;52930;51.464;11.764;2023-05-29T00:45:30;11.70;;;3.47;;
66129;SDS011;52930;51.464;11.764;2023-05-29T00:47:57;8.05;;;3.08;;
66129;SDS011;52930;51.464;11.764;2023-05-29T00:50:22;8.20;;;2.80;;
66129;SDS011;52930;51.464;11.764;2023-05-29T00:52:48;7.10;;;2.83;;
66129;SDS011;52930;51.464;11.764;2023-05-29T00:55:14;9.25;;;3.45;;
66129;SDS011;52930;51.464;11.764;2023-05-29T00:57:39;9.65;;;3.42;;
66129;SDS011;52930;51.464;11.764;2023-05-29T01:00:05;7.07;;;3.20;;
66129;SDS011;52930;51.464;11.764;2023-05-29T01:02:38;7.32;;;2.83;;
66129;SDS011;52930;51.464;11.764;2023-05-29T01:05:05;11.20;;;3.17;;
66129;SDS011;52930;51.464;11.764;2023-05-29T01:07:31;8.73;;;3.43;;
66129;SDS011;52930;51.464;11.764;2023-05-29T01:09:57;12.60;;;3.63;;
66129;SDS011;52930;51.464;11.764;2023-05-29T01:12:26;8.93;;;3.00;;
66129;SDS011;52930;51.464;11.764;2023-05-29T01:20:33;10.90;;;3.70;;
66129;SDS011;52930;51.464;11.764;2023-05-29T01:28:53;9.95;;;3.67;;
66129;SDS011;52930;51.464;11.764;2023-05-29T01:31:23;9.43;;;3.35;;
66129;SDS011;52930;51.464;11.764;2023-05-29T01:33:55;14.27;;;4.00;;
66129;SDS011;52930;51.464;11.764;2023-05-29T01:36:22;8.60;;;3.35;;
66129;SDS011;52930;51.464;11.764;2023-05-29T01:38:48;13.00;;;4.03;;
66129;SDS011;52930;51.464;11.764;2023-05-29T01:41:15;11.00;;;3.75;;
66129;SDS011;52930;51.464;11.764;2023-05-29T01:43:42;12.80;;;3.43;;
66129;SDS011;52930;51.464;11.764;2023-05-29T01:46:08;10.77;;;3.83;;
66129;SDS011;52930;51.464;11.764;2023-05-29T01:48:34;11.03;;;4.13;;
66129;SDS011;52930;51.464;11.764;2023-05-29T01:51:00;12.18;;;3.85;;
66129;SDS011;52930;51.464;11.764;2023-05-29T01:53:25;9.37;;;3.70;;
66129;SDS011;52930;51.464;11.764;2023-05-29T01:55:50;11.57;;;3.78;;
66129;SDS011;52930;51.464;11.764;2023-05-29T01:58:16;9.70;;;3.40;;
66129;SDS011;52930;51.464;11.764;2023-05-29T02:00:42;9.70;;;3.63;;
66129;SDS011;52930;51.464;11.764;2023-05-29T02:03:08;12.53;;;3.60;;
66129;SDS011;52930;51.464;11.764;2023-05-29T02:05:33;9.43;;;3.90;;
66129;SDS011;52930;51.464;11.764;2023-05-29T02:07:58;10.97;;;3.80;;
66129;SDS011;52930;51.464;11.764;2023-05-29T02:10:23;10.00;;;3.90;;
66129;SDS011;52930;51.464;11.764;2023-05-29T02:12:49;10.93;;;3.77;;
66129;SDS011;52930;51.464;11.764;2023-05-29T02:15:15;11.27;;;3.85;;
66129;SDS011;52930;51.464;11.764;2023-05-29T02:17:40;10.43;;;4.37;;
66129;SDS011;52930;51.464;11.764;2023-05-29T02:20:06;15.23;;;4.10;;
66129;SDS011;52930;51.464;11.764;2023-05-29T02:22:32;11.18;;;3.78;;
66129;SDS011;52930;51.464;11.764;2023-05-29T02:24:57;10.30;;;3.70;;
66129;SDS011;52930;51.464;11.764;2023-05-29T02:27:23;12.43;;;3.50;;
66129;SDS011;52930;51.464;11.764;2023-05-29T02:29:48;10.55;;;3.45;;
66129;SDS011;52930;51.464;11.764;2023-05-29T02:32:13;11.98;;;3.90;;
66129;SDS011;52930;51.464;11.764;2023-05-29T02:34:39;13.47;;;4.17;;
66129;SDS011;52930;51.464;11.764;2023-05-29T02:37:04;10.90;;;4.57;;
66129;SDS011;52930;51.464;11.764;2023-05-29T02:39:29;11.90;;;4.13;;
66129;SDS011;52930;51.464;11.764;2023-05-29T02:41:55;13.80;;;3.80;;
66129;SDS011;52930;51.464;11.764;2023-05-29T02:44:20;16.13;;;4.77;;
66129;SDS011;52930;51.464;11.764;2023-05-29T02:46:45;11.10;;;4.60;;
66129;SDS011;52930;51.464;11.764;2023-05-29T02:49:11;12.07;;;4.17;;
66129;SDS011;52930;51.464;11.764;2023-05-29T02:51:36;12.93;;;4.67;;
66129;SDS011;52930;51.464;11.764;2023-05-29T02:54:02;12.02;;;4.40;;
66129;SDS011;52930;51.464;11.764;2023-05-29T02:56:27;10.43;;;3.93;;
66129;SDS011;52930;51.464;11.764;2023-05-29T02:58:53;9.68;;;3.88;;
66129;SDS011;52930;51.464;11.764;2023-05-29T03:01:18;12.07;;;3.60;;
66129;SDS011;52930;51.464;11.764;2023-05-29T03:03:44;11.70;;;3.77;;
66129;SDS011;52930;51.464;11.764;2023-05-29T03:06:09;13.90;;;3.80;;
66129;SDS011;52930;51.464;11.764;2023-05-29T03:08:35;10.03;;;4.17;;
66129;SDS011;52930;51.464;11.764;2023-05-29T03:11:05;8.70;;;3.55;;
66129;SDS011;52930;51.464;11.764;2023-05-29T03:13:31;10.25;;;3.80;;
66129;SDS011;52930;51.464;11.764;2023-05-29T03:15:59;8.60;;;3.40;;
66129;SDS011;52930;51.464;11.764;2023-05-29T03:18:24;11.10;;;3.47;;
66129;SDS011;52930;51.464;11.764;2023-05-29T03:20:50;11.27;;;3.90;;
66129;SDS011;52930;51.464;11.764;2023-05-29T03:23:15;10.33;;;3.67;;
66129;SDS011;52930;51.464;11.764;2023-05-29T03:25:40;10.63;;;3.43;;
66129;SDS011;52930;51.464;11.764;2023-05-29T03:28:06;10.80;;;4.00;;
66129;SDS011;52930;51.464;11.764;2023-05-29T03:30:31;10.90;;;4.00;;
66129;SDS011;52930;51.464;11.764;2023-05-29T03:32:56;9.75;;;4.22;;
66129;SDS011;52930;51.464;11.764;2023-05-29T03:35:28;9.77;;;4.23;;
66129;SDS011;52930;51.464;11.764;2023-05-29T03:37:53;12.55;;;4.80;;
66129;SDS011;52930;51.464;11.764;2023-05-29T03:40:18;13.50;;;4.00;;
66129;SDS011;52930;51.464;11.764;2023-05-29T03:42:44;11.97;;;4.20;;
66129;SDS011;52930;51.464;11.764;2023-05-29T03:45:09;13.50;;;4.53;;
66129;SDS011;52930;51.464;11.764;2023-05-29T03:47:35;11.67;;;4.37;;
66129;SDS011;52930;51.464;11.764;2023-05-29T03:50:01;10.48;;;4.35;;
66129;SDS011;52930;51.464;11.764;2023-05-29T03:52:26;12.90;;;4.33;;
66129;SDS011;52930;51.464;11.764;2023-05-29T03:54:52;11.25;;;4.18;;
66129;SDS011;52930;51.464;11.764;2023-05-29T03:57:17;13.07;;;4.53;;
66129;SDS011;52930;51.464;11.764;2023-05-29T03:59:43;16.00;;;4.50;;
66129;SDS011;52930;51.464;11.764;2023-05-29T04:02:08;13.50;;;4.40;;
66129;SDS011;52930;51.464;11.764;2023-05-29T04:04:33;10.83;;;4.80;;
66129;SDS011;52930;51.464;11.764;2023-05-29T04:06:58;15.77;;;4.20;;
66129;SDS011;52930;51.464;11.764;2023-05-29T04:09:24;12.68;;;4.55;;
66129;SDS011;52930;51.464;11.764;2023-05-29T04:11:49;11.63;;;3.90;;
66129;SDS011;52930;51.464;11.764;2023-05-29T04:14:16;15.18;;;4.68;;
66129;SDS011;52930;51.464;11.764;2023-05-29T04:16:42;9.05;;;3.60;;
66129;SDS011;52930;51.464;11.764;2023-05-29T04:19:07;12.07;;;4.10;;
66129;SDS011;52930;51.464;11.764;2023-05-29T04:21:32;11.17;;;3.90;;
66129;SDS011;52930;51.464;11.764;2023-05-29T04:23:58;9.87;;;3.53;;
66129;SDS011;52930;51.464;11.764;2023-05-29T04:26:23;10.10;;;4.03;;
66129;SDS011;52930;51.464;11.764;2023-05-29T04:28:52;11.60;;;4.07;;
66129;SDS011;52930;51.464;11.764;2023-05-29T04:31:22;11.45;;;4.13;;
66129;SDS011;52930;51.464;11.764;2023-05-29T04:33:54;9.90;;;3.30;;
66129;SDS011;52930;51.464;11.764;2023-05-29T04:36:26;11.55;;;3.33;;
66129;SDS011;52930;51.464;11.764;2023-05-29T04:38:52;12.45;;;4.30;;
66129;SDS011;52930;51.464;11.764;2023-05-29T04:41:18;9.45;;;3.60;;
66129;SDS011;52930;51.464;11.764;2023-05-29T04:43:43;10.07;;;3.43;;
66129;SDS011;52930;51.464;11.764;2023-05-29T04:46:09;12.07;;;3.87;;
66129;SDS011;52930;51.464;11.764;2023-05-29T04:48:38;9.07;;;3.38;;
66129;SDS011;52930;51.464;11.764;2023-05-29T04:51:05;11.27;;;3.53;;
66129;SDS011;52930;51.464;11.764;2023-05-29T04:53:31;13.20;;;3.50;;
66129;SDS011;52930;51.464;11.764;2023-05-29T04:55:56;12.30;;;3.13;;
66129;SDS011;52930;51.464;11.764;2023-05-29T04:58:24;9.27;;;3.50;;
66129;SDS011;52930;51.464;11.764;2023-05-29T05:00:50;13.90;;;3.30;;
66129;SDS011;52930;51.464;11.764;2023-05-29T05:03:16;8.80;;;3.50;;
66129;SDS011;52930;51.464;11.764;2023-05-29T05:05:41;8.95;;;3.17;;
66129;SDS011;52930;51.464;11.764;2023-05-29T05:08:08;10.63;;;3.30;;
66129;SDS011;52930;51.464;11.764;2023-05-29T05:10:34;12.68;;;3.20;;
66129;SDS011;52930;51.464;11.764;2023-05-29T05:13:00;10.97;;;3.43;;
66129;SDS011;52930;51.464;11.764;2023-05-29T05:15:27;10.43;;;3.75;;
66129;SDS011;52930;51.464;11.764;2023-05-29T05:17:53;12.18;;;3.40;;
66129;SDS011;52930;51.464;11.764;2023-05-29T05:20:18;9.30;;;3.07;;
66129;SDS011;52930;51.464;11.764;2023-05-29T05:22:44;9.73;;;3.37;;
66129;SDS011;52930;51.464;11.764;2023-05-29T05:25:09;14.07;;;3.95;;
66129;SDS011;52930;51.464;11.764;2023-05-29T05:27:35;8.82;;;3.38;;
66129;SDS011;52930;51.464;11.764;2023-05-29T05:30:01;10.07;;;3.60;;
66129;SDS011;52930;51.464;11.764;2023-05-29T05:32:27;10.45;;;3.50;;
66129;SDS011;52930;51.464;11.764;2023-05-29T05:34:52;13.33;;;4.10;;
66129;SDS011;52930;51.464;11.764;2023-05-29T05:37:18;11.63;;;3.70;;
66129;SDS011;52930;51.464;11.764;2023-05-29T05:39:43;10.13;;;3.43;;
66129;SDS011;52930;51.464;11.764;2023-05-29T05:42:08;12.90;;;3.20;;
66129;SDS011;52930;51.464;11.764;2023-05-29T05:44:34;11.32;;;3.97;;
66129;SDS011;52930;51.464;11.764;2023-05-29T05:46:59;11.33;;;3.60;;
66129;SDS011;52930;51.464;11.764;2023-05-29T05:49:25;11.07;;;3.70;;
66129;SDS011;52930;51.464;11.764;2023-05-29T05:51:50;10.23;;;3.40;;
66129;SDS011;52930;51.464;11.764;2023-05-29T05:54:15;10.80;;;3.50;;
66129;SDS011;52930;51.464;11.764;2023-05-29T05:56:41;10.83;;;3.53;;
66129;SDS011;52930;51.464;11.764;2023-05-29T05:59:06;10.85;;;3.70;;
66129;SDS011;52930;51.464;11.764;2023-05-29T06:01:31;12.40;;;3.67;;
66129;SDS011;52930;51.464;11.764;2023-05-29T06:03:58;11.15;;;3.50;;
66129;SDS011;52930;51.464;11.764;2023-05-29T06:06:23;9.82;;;3.53;;
66129;SDS011;52930;51.464;11.764;2023-05-29T06:08:49;12.13;;;4.10;;
66129;SDS011;52930;51.464;11.764;2023-05-29T06:11:14;8.13;;;3.60;;
66129;SDS011;52930;51.464;11.764;2023-05-29T06:13:40;11.13;;;3.67;;
66129;SDS011;52930;51.464;11.764;2023-05-29T06:16:05;10.13;;;3.28;;
66129;SDS011;52930;51.464;11.764;2023-05-29T06:18:31;8.03;;;3.30;;
66129;SDS011;52930;51.464;11.764;2023-05-29T06:20:56;8.50;;;3.20;;
66129;SDS011;52930;51.464;11.764;2023-05-29T06:23:21;9.27;;;3.40;;
66129;SDS011;52930;51.464;11.764;2023-05-29T06:25:47;9.77;;;3.00;;
66129;SDS011;52930;51.464;11.764;2023-05-29T06:28:13;8.93;;;3.47;;
66129;SDS011;52930;51.464;11.764;2023-05-29T06:30:38;9.23;;;2.83;;
66129;SDS011;52930;51.464;11.764;2023-05-29T06:33:04;8.85;;;3.38;;
66129;SDS011;52930;51.464;11.764;2023-05-29T06:35:30;10.15;;;3.17;;
66129;SDS011;52930;51.464;11.764;2023-05-29T06:37:55;11.00;;;3.17;;
66129;SDS011;52930;51.464;11.764;2023-05-29T06:40:21;10.47;;;3.47;;
66129;SDS011;52930;51.464;11.764;2023-05-29T06:42:46;13.10;;;3.67;;
66129;SDS011;52930;51.464;11.764;2023-05-29T06:45:12;9.37;;;3.30;;
66129;SDS011;52930;51.464;11.764;2023-05-29T06:47:41;11.32;;;3.10;;
66129;SDS011;52930;51.464;11.764;2023-05-29T06:50:07;7.75;;;2.65;;
66129;SDS011;52930;51.464;11.764;2023-05-29T06:52:33;9.70;;;2.93;;
66129;SDS011;52930;51.464;11.764;2023-05-29T06:54:58;9.27;;;2.80;;
66129;SDS011;52930;51.464;11.764;2023-05-29T06:57:23;8.35;;;3.67;;
66129;SDS011;52930;51.464;11.764;2023-05-29T06:59:49;9.17;;;3.07;;
66129;SDS011;52930;51.464;11.764;2023-05-29T07:02:14;10.70;;;3.57;;
66129;SDS011;52930;51.464;11.764;2023-05-29T07:04:39;9.80;;;2.90;;
66129;SDS011;52930;51.464;11.764;2023-05-29T07:07:05;10.47;;;3.37;;
66129;SDS011;52930;51.464;11.764;2023-05-29T07:09:30;7.47;;;2.73;;
66129;SDS011;52930;51.464;11.764;2023-05-29T07:11:55;9.33;;;2.90;;
66129;SDS011;52930;51.464;11.764;2023-05-29T07:14:21;8.70;;;2.90;;
66129;SDS011;52930;51.464;11.764;2023-05-29T07:16:46;8.13;;;2.80;;
66129;SDS011;52930;51.464;11.764;2023-05-29T07:19:11;14.10;;;3.43;;
66129;SDS011;52930;51.464;11.764;2023-05-29T07:21:38;10.20;;;3.55;;
66129;SDS011;52930;51.464;11.764;2023-05-29T07:24:04;9.00;;;3.27;;
66129;SDS011;52930;51.464;11.764;2023-05-29T07:26:29;10.00;;;2.83;;
66129;SDS011;52930;51.464;11.764;2023-05-29T07:28:55;7.20;;;2.50;;
66129;SDS011;52930;51.464;11.764;2023-05-29T07:31:21;10.30;;;2.80;;
66129;SDS011;52930;51.464;11.764;2023-05-29T07:33:46;9.93;;;2.97;;
66129;SDS011;52930;51.464;11.764;2023-05-29T07:36:12;9.43;;;3.37;;
66129;SDS011;52930;51.464;11.764;2023-05-29T07:38:37;8.13;;;3.20;;
66129;SDS011;52930;51.464;11.764;2023-05-29T07:41:03;8.83;;;3.23;;
66129;SDS011;52930;51.464;11.764;2023-05-29T07:43:28;8.87;;;2.93;;
66129;SDS011;52930;51.464;11.764;2023-05-29T07:45:53;12.30;;;3.40;;
66129;SDS011;52930;51.464;11.764;2023-05-29T07:48:19;9.07;;;3.23;;
66129;SDS011;52930;51.464;11.764;2023-05-29T07:50:44;10.32;;;3.55;;
66129;SDS011;52930;51.464;11.764;2023-05-29T07:53:10;9.03;;;2.80;;
66129;SDS011;52930;51.464;11.764;2023-05-29T07:55:35;8.73;;;3.40;;
66129;SDS011;52930;51.464;11.764;2023-05-29T07:58:01;7.82;;;2.83;;
66129;SDS011;52930;51.464;11.764;2023-05-29T08:00:26;9.10;;;3.30;;
66129;SDS011;52930;51.464;11.764;2023-05-29T08:02:53;11.13;;;3.17;;
66129;SDS011;52930;51.464;11.764;2023-05-29T08:05:18;10.63;;;3.30;;
66129;SDS011;52930;51.464;11.764;2023-05-29T08:07:44;8.07;;;3.05;;
66129;SDS011;52930;51.464;11.764;2023-05-29T08:10:09;8.77;;;3.00;;
66129;SDS011;52930;51.464;11.764;2023-05-29T08:12:35;6.93;;;2.80;;
66129;SDS011;52930;51.464;11.764;2023-05-29T08:15:01;8.43;;;3.27;;
66129;SDS011;52930;51.464;11.764;2023-05-29T08:17:27;8.13;;;2.63;;
66129;SDS011;52930;51.464;11.764;2023-05-29T08:19:53;9.60;;;2.83;;
66129;SDS011;52930;51.464;11.764;2023-05-29T08:22:18;7.88;;;3.15;;
66129;SDS011;52930;51.464;11.764;2023-05-29T08:24:43;8.90;;;3.33;;
66129;SDS011;52930;51.464;11.764;2023-05-29T08:27:09;9.93;;;2.97;;
66129;SDS011;52930;51.464;11.764;2023-05-29T08:29:34;7.20;;;2.95;;
66129;SDS011;52930;51.464;11.764;2023-05-29T08:32:01;10.07;;;2.83;;
66129;SDS011;52930;51.464;11.764;2023-05-29T08:34:26;6.18;;;2.72;;
66129;SDS011;52930;51.464;11.764;2023-05-29T08:36:51;9.87;;;3.10;;
66129;SDS011;52930;51.464;11.764;2023-05-29T08:39:20;9.07;;;2.95;;
66129;SDS011;52930;51.464;11.764;2023-05-29T08:41:54;10.37;;;2.80;;
66129;SDS011;52930;51.464;11.764;2023-05-29T08:44:24;6.70;;;2.60;;
66129;SDS011;52930;51.464;11.764;2023-05-29T08:46:52;6.90;;;3.05;;
66129;SDS011;52930;51.464;11.764;2023-05-29T08:49:20;8.07;;;2.67;;
66129;SDS011;52930;51.464;11.764;2023-05-29T08:51:47;9.20;;;2.83;;
66129;SDS011;52930;51.464;11.764;2023-05-29T08:54:15;7.95;;;2.83;;
66129;SDS011;52930;51.464;11.764;2023-05-29T08:56:41;9.30;;;2.87;;
66129;SDS011;52930;51.464;11.764;2023-05-29T08:59:06;8.90;;;2.60;;
66129;SDS011;52930;51.464;11.764;2023-05-29T09:01:33;8.43;;;2.80;;
66129;SDS011;52930;51.464;11.764;2023-05-29T09:03:59;8.93;;;2.63;;
66129;SDS011;52930;51.464;11.764;2023-05-29T09:06:26;6.53;;;2.72;;
66129;SDS011;52930;51.464;11.764;2023-05-29T09:08:51;6.30;;;2.37;;
66129;SDS011;52930;51.464;11.764;2023-05-29T09:11:17;6.68;;;2.78;;
66129;SDS011;52930;51.464;11.764;2023-05-29T09:13:43;8.37;;;2.60;;
66129;SDS011;52930;51.464;11.764;2023-05-29T09:16:08;6.33;;;2.73;;
66129;SDS011;52930;51.464;11.764;2023-05-29T09:18:34;7.43;;;2.80;;
66129;SDS011;52930;51.464;11.764;2023-05-29T09:20:59;9.87;;;2.77;;
66129;SDS011;52930;51.464;11.764;2023-05-29T09:23:33;7.35;;;2.75;;
66129;SDS011;52930;51.464;11.764;2023-05-29T09:25:59;7.40;;;2.70;;
66129;SDS011;52930;51.464;11.764;2023-05-29T09:28:27;8.40;;;2.30;;
66129;SDS011;52930;51.464;11.764;2023-05-29T09:30:56;7.07;;;2.47;;
66129;SDS011;52930;51.464;11.764;2023-05-29T09:33:21;7.13;;;2.42;;
66129;SDS011;52930;51.464;11.764;2023-05-29T09:35:47;5.80;;;2.70;;
66129;SDS011;52930;51.464;11.764;2023-05-29T09:38:14;6.33;;;2.27;;
66129;SDS011;52930;51.464;11.764;2023-05-29T09:40:41;8.15;;;2.88;;
66129;SDS011;52930;51.464;11.764;2023-05-29T09:43:13;6.90;;;2.20;;
66129;SDS011;52930;51.464;11.764;2023-05-29T09:45:41;6.97;;;2.53;;
66129;SDS011;52930;51.464;11.764;2023-05-29T09:48:14;8.02;;;2.30;;
66129;SDS011;52930;51.464;11.764;2023-05-29T09:50:44;6.07;;;2.50;;
66129;SDS011;52930;51.464;11.764;2023-05-29T09:53:19;7.70;;;2.55;;
66129;SDS011;52930;51.464;11.764;2023-05-29T09:55:51;7.40;;;2.58;;
66129;SDS011;52930;51.464;11.764;2023-05-29T09:58:18;9.93;;;2.50;;
66129;SDS011;52930;51.464;11.764;2023-05-29T10:00:43;7.30;;;2.40;;
66129;SDS011;52930;51.464;11.764;2023-05-29T10:03:09;5.55;;;2.05;;
66129;SDS011;52930;51.464;11.764;2023-05-29T10:05:37;6.38;;;2.33;;
66129;SDS011;52930;51.464;11.764;2023-05-29T10:08:03;9.17;;;2.93;;
66129;SDS011;52930;51.464;11.764;2023-05-29T10:10:30;7.90;;;2.47;;
66129;SDS011;52930;51.464;11.764;2023-05-29T10:12:55;9.57;;;2.45;;
66129;SDS011;52930;51.464;11.764;2023-05-29T10:15:22;7.77;;;2.50;;
66129;SDS011;52930;51.464;11.764;2023-05-29T10:18:02;10.60;;;2.55;;
66129;SDS011;52930;51.464;11.764;2023-05-29T10:20:31;6.63;;;2.33;;
66129;SDS011;52930;51.464;11.764;2023-05-29T10:22:57;6.87;;;1.80;;
66129;SDS011;52930;51.464;11.764;2023-05-29T10:25:27;6.40;;;1.92;;
66129;SDS011;52930;51.464;11.764;2023-05-29T10:27:55;5.40;;;2.13;;
66129;SDS011;52930;51.464;11.764;2023-05-29T10:30:24;7.45;;;2.75;;
66129;SDS011;52930;51.464;11.764;2023-05-29T10:35:46;7.23;;;2.83;;
66129;SDS011;52930;51.464;11.764;2023-05-29T10:38:15;6.28;;;2.15;;
66129;SDS011;52930;51.464;11.764;2023-05-29T10:40:43;6.47;;;2.50;;
66129;SDS011;52930;51.464;11.764;2023-05-29T10:43:09;7.57;;;2.40;;
66129;SDS011;52930;51.464;11.764;2023-05-29T10:45:57;6.40;;;2.20;;
66129;SDS011;52930;51.464;11.764;2023-05-29T10:50:53;9.32;;;2.50;;
66129;SDS011;52930;51.464;11.764;2023-05-29T10:53:24;6.63;;;2.20;;
66129;SDS011;52930;51.464;11.764;2023-05-29T10:55:51;8.18;;;2.40;;
66129;SDS011;52930;51.464;11.764;2023-05-29T10:58:20;7.45;;;2.22;;
66129;SDS011;52930;51.464;11.764;2023-05-29T11:00:50;8.10;;;2.10;;
66129;SDS011;52930;51.464;11.764;2023-05-29T11:03:22;6.35;;;1.83;;
66129;SDS011;52930;51.464;11.764;2023-05-29T11:05:56;5.57;;;1.88;;
66129;SDS011;52930;51.464;11.764;2023-05-29T11:08:42;6.53;;;2.40;;
66129;SDS011;52930;51.464;11.764;2023-05-29T11:11:12;7.30;;;2.78;;
66129;SDS011;52930;51.464;11.764;2023-05-29T11:13:38;5.30;;;2.20;;
66129;SDS011;52930;51.464;11.764;2023-05-29T11:18:49;7.38;;;2.67;;
66129;SDS011;52930;51.464;11.764;2023-05-29T11:23:54;6.70;;;2.55;;
66129;SDS011;52930;51.464;11.764;2023-05-29T11:26:25;5.17;;;1.93;;
66129;SDS011;52930;51.464;11.764;2023-05-29T11:28:52;7.57;;;2.30;;
66129;SDS011;52930;51.464;11.764;2023-05-29T11:31:17;7.13;;;2.53;;
66129;SDS011;52930;51.464;11.764;2023-05-29T11:33:46;5.15;;;2.22;;
66129;SDS011;52930;51.464;11.764;2023-05-29T11:36:14;8.57;;;2.20;;
66129;SDS011;52930;51.464;11.764;2023-05-29T11:38:39;6.27;;;2.13;;
66129;SDS011;52930;51.464;11.764;2023-05-29T11:41:05;5.90;;;2.35;;
66129;SDS011;52930;51.464;11.764;2023-05-29T11:43:30;6.07;;;2.20;;
66129;SDS011;52930;51.464;11.764;2023-05-29T11:45:56;8.23;;;2.30;;
66129;SDS011;52930;51.464;11.764;2023-05-29T11:48:21;7.63;;;2.60;;
66129;SDS011;52930;51.464;11.764;2023-05-29T11:50:48;5.72;;;2.33;;
66129;SDS011;52930;51.464;11.764;2023-05-29T11:53:13;5.37;;;2.40;;
66129;SDS011;52930;51.464;11.764;2023-05-29T11:55:39;10.80;;;2.30;;
66129;SDS011;52930;51.464;11.764;2023-05-29T11:58:05;6.35;;;2.33;;
66129;SDS011;52930;51.464;11.764;2023-05-29T12:00:34;7.30;;;2.63;;
66129;SDS011;52930;51.464;11.764;2023-05-29T12:03:01;9.98;;;2.85;;
66129;SDS011;52930;51.464;11.764;2023-05-29T12:05:32;7.67;;;3.03;;
66129;SDS011;52930;51.464;11.764;2023-05-29T12:08:09;6.32;;;2.80;;
66129;SDS011;52930;51.464;11.764;2023-05-29T12:10:35;10.30;;;2.77;;
66129;SDS011;52930;51.464;11.764;2023-05-29T12:13:00;6.03;;;2.40;;
66129;SDS011;52930;51.464;11.764;2023-05-29T12:15:26;5.97;;;2.10;;
66129;SDS011;52930;51.464;11.764;2023-05-29T12:17:53;11.57;;;2.70;;
66129;SDS011;52930;51.464;11.764;2023-05-29T12:20:21;6.77;;;2.70;;
66129;SDS011;52930;51.464;11.764;2023-05-29T12:22:47;6.70;;;2.47;;
66129;SDS011;52930;51.464;11.764;2023-05-29T12:25:13;5.83;;;2.33;;
66129;SDS011;52930;51.464;11.764;2023-05-29T12:27:41;8.38;;;2.17;;
66129;SDS011;52930;51.464;11.764;2023-05-29T12:30:29;6.93;;;2.65;;
66129;SDS011;52930;51.464;11.764;2023-05-29T12:32:55;7.13;;;2.50;;
66129;SDS011;52930;51.464;11.764;2023-05-29T12:35:24;6.90;;;2.23;;
66129;SDS011;52930;51.464;11.764;2023-05-29T12:40:29;5.90;;;2.70;;
66129;SDS011;52930;51.464;11.764;2023-05-29T12:45:25;7.18;;;2.60;;
66129;SDS011;52930;51.464;11.764;2023-05-29T12:47:54;6.17;;;2.47;;
66129;SDS011;52930;51.464;11.764;2023-05-29T12:50:21;7.28;;;2.95;;
66129;SDS011;52930;51.464;11.764;2023-05-29T12:55:20;10.15;;;2.90;;
66129;SDS011;52930;51.464;11.764;2023-05-29T12:57:45;6.73;;;2.73;;
66129;SDS011;52930;51.464;11.764;2023-05-29T13:00:11;7.57;;;2.15;;
66129;SDS011;52930;51.464;11.764;2023-05-29T13:02:37;7.23;;;2.30;;
66129;SDS011;52930;51.464;11.764;2023-05-29T13:05:03;7.17;;;2.50;;
66129;SDS011;52930;51.464;11.764;2023-05-29T13:07:28;5.80;;;2.25;;
66129;SDS011;52930;51.464;11.764;2023-05-29T13:09:53;7.63;;;2.83;;
66129;SDS011;52930;51.464;11.764;2023-05-29T13:12:19;6.30;;;2.22;;
66129;SDS011;52930;51.464;11.764;2023-05-29T13:14:45;9.93;;;2.63;;
66129;SDS011;52930;51.464;11.764;2023-05-29T13:17:10;7.50;;;2.70;;
66129;SDS011;52930;51.464;11.764;2023-05-29T13:19:35;8.40;;;2.70;;
66129;SDS011;52930;51.464;11.764;2023-05-29T13:22:01;7.63;;;2.53;;
66129;SDS011;52930;51.464;11.764;2023-05-29T13:24:26;7.70;;;2.90;;
66129;SDS011;52930;51.464;11.764;2023-05-29T13:26:51;7.83;;;2.63;;
66129;SDS011;52930;51.464;11.764;2023-05-29T13:29:17;6.33;;;2.30;;
66129;SDS011;52930;51.464;11.764;2023-05-29T13:31:42;9.63;;;2.47;;
66129;SDS011;52930;51.464;11.764;2023-05-29T13:34:07;6.07;;;2.30;;
66129;SDS011;52930;51.464;11.764;2023-05-29T13:36:33;6.23;;;2.10;;
66129;SDS011;52930;51.464;11.764;2023-05-29T13:38:58;7.97;;;3.07;;
66129;SDS011;52930;51.464;11.764;2023-05-29T13:41:23;7.17;;;2.87;;
66129;SDS011;52930;51.464;11.764;2023-05-29T13:43:50;9.38;;;2.80;;
66129;SDS011;52930;51.464;11.764;2023-05-29T13:46:15;6.50;;;2.60;;
66129;SDS011;52930;51.464;11.764;2023-05-29T13:48:41;8.20;;;2.63;;
66129;SDS011;52930;51.464;11.764;2023-05-29T13:51:06;6.97;;;2.63;;
66129;SDS011;52930;51.464;11.764;2023-05-29T13:53:32;7.37;;;2.47;;
66129;SDS011;52930;51.464;11.764;2023-05-29T13:55:57;8.07;;;2.83;;
66129;SDS011;52930;51.464;11.764;2023-05-29T13:58:22;7.00;;;2.87;;
66129;SDS011;52930;51.464;11.764;2023-05-29T14:00:47;7.97;;;2.40;;
66129;SDS011;52930;51.464;11.764;2023-05-29T14:03:13;8.50;;;3.13;;
66129;SDS011;52930;51.464;11.764;2023-05-29T14:05:38;8.10;;;2.60;;
66129;SDS011;52930;51.464;11.764;2023-05-29T14:08:04;7.07;;;2.63;;
66129;SDS011;52930;51.464;11.764;2023-05-29T14:10:29;7.37;;;2.63;;
66129;SDS011;52930;51.464;11.764;2023-05-29T14:12:55;7.15;;;2.80;;
66129;SDS011;52930;51.464;11.764;2023-05-29T14:15:20;8.77;;;2.57;;
66129;SDS011;52930;51.464;11.764;2023-05-29T14:17:46;7.30;;;2.20;;
66129;SDS011;52930;51.464;11.764;2023-05-29T14:20:11;6.53;;;3.20;;
66129;SDS011;52930;51.464;11.764;2023-05-29T14:22:36;7.60;;;2.92;;
66129;SDS011;52930;51.464;11.764;2023-05-29T14:25:02;7.13;;;2.20;;
66129;SDS011;52930;51.464;11.764;2023-05-29T14:27:29;8.85;;;3.00;;
66129;SDS011;52930;51.464;11.764;2023-05-29T14:29:54;6.93;;;2.50;;
66129;SDS011;52930;51.464;11.764;2023-05-29T14:32:20;7.65;;;2.78;;
66129;SDS011;52930;51.464;11.764;2023-05-29T14:34:45;6.90;;;2.90;;
66129;SDS011;52930;51.464;11.764;2023-05-29T14:37:11;6.57;;;2.27;;
66129;SDS011;52930;51.464;11.764;2023-05-29T14:39:36;8.57;;;2.78;;
66129;SDS011;52930;51.464;11.764;2023-05-29T14:42:02;5.80;;;2.20;;
66129;SDS011;52930;51.464;11.764;2023-05-29T14:44:27;7.43;;;2.50;;
66129;SDS011;52930;51.464;11.764;2023-05-29T14:46:53;7.60;;;2.58;;
66129;SDS011;52930;51.464;11.764;2023-05-29T14:49:18;7.80;;;2.90;;
66129;SDS011;52930;51.464;11.764;2023-05-29T14:51:44;8.17;;;2.10;;
66129;SDS011;52930;51.464;11.764;2023-05-29T14:54:10;7.20;;;2.50;;
66129;SDS011;52930;51.464;11.764;2023-05-29T14:56:36;9.77;;;2.77;;